Time;durP1;ratioP1;P1;durP2;ratioP2;P2;SDS_P1;SDS_P2;PMS_P1;PMS_P2;Temp;Humidity;BMP_temperature;BMP_pressure;BME280_temperature;BME280_humidity;BME280_pressure;Samples;Min_cycle;Max_cycle;Signal;HPM_P1;HPM_P2
2023/07/08 00:00:53;;;;;;;5.97;4.18;;;18.90;59.20;;;;;;5055927;28;20044;-68
2023/07/08 00:03:19;;;;;;;8.45;4.18;;;19.00;59.30;;;;;;5055529;28;20426;-68
2023/07/08 00:05:47;;;;;;;5.10;3.92;;;18.90;59.20;;;;;;5051298;28;20048;-68
2023/07/08 00:08:17;;;;;;;7.03;4.72;;;18.90;59.10;;;;;;5039203;28;20044;-68
2023/07/08 00:10:43;;;;;;;4.60;4.10;;;18.90;59.30;;;;;;5055423;28;20041;-68
2023/07/08 00:13:10;;;;;;;6.22;4.00;;;18.90;59.30;;;;;;5055572;28;20094;-68
2023/07/08 00:15:37;;;;;;;6.47;4.55;;;18.90;59.30;;;;;;5055508;28;20519;-68
2023/07/08 00:18:14;;;;;;;6.25;3.90;;;18.80;59.30;;;;;;5055579;28;20053;-68
2023/07/08 00:20:41;;;;;;;6.38;3.85;;;18.80;59.40;;;;;;5055780;28;20039;-68
2023/07/08 00:23:09;;;;;;;9.10;4.65;;;18.80;59.40;;;;;;5055545;28;20041;-68
2023/07/08 00:25:35;;;;;;;7.90;4.00;;;18.80;59.60;;;;;;5047908;28;20361;-68
2023/07/08 00:28:01;;;;;;;7.85;4.30;;;18.70;59.50;;;;;;5055397;28;20182;-68
2023/07/08 00:30:30;;;;;;;8.65;4.20;;;18.70;59.50;;;;;;5055153;28;20055;-69
2023/07/08 00:32:57;;;;;;;6.80;4.45;;;18.70;59.70;;;;;;5055504;28;20052;-68
2023/07/08 00:35:33;;;;;;;6.30;4.32;;;18.70;59.80;;;;;;5055122;28;20044;-68
2023/07/08 00:38:03;;;;;;;7.68;4.28;;;18.60;59.80;;;;;;5055031;28;20040;-68
2023/07/08 00:40:30;;;;;;;6.97;4.25;;;18.60;59.90;;;;;;5055480;28;20108;-68
2023/07/08 00:42:58;;;;;;;6.28;4.15;;;18.50;59.90;;;;;;5055209;28;20423;-68
2023/07/08 00:45:37;;;;;;;5.78;4.60;;;18.50;60.00;;;;;;5055030;28;20499;-68
2023/07/08 00:48:28;;;;;;;7.40;4.40;;;18.50;60.20;;;;;;5055138;28;20047;-68
2023/07/08 00:50:54;;;;;;;5.53;4.38;;;18.50;60.10;;;;;;5055046;28;20373;-68
2023/07/08 00:53:28;;;;;;;9.55;4.28;;;18.50;60.10;;;;;;5054883;28;20048;-68
2023/07/08 00:56:00;;;;;;;6.93;5.05;;;18.50;60.20;;;;;;5047999;28;20421;-68
2023/07/08 00:58:34;;;;;;;6.88;4.65;;;18.40;60.30;;;;;;5072931;28;20496;-68
2023/07/08 01:01:03;;;;;;;6.88;5.10;;;18.40;60.30;;;;;;5055001;28;20032;-68
2023/07/08 01:03:30;;;;;;;9.38;5.80;;;18.40;60.30;;;;;;5054921;28;20109;-67
2023/07/08 01:05:59;;;;;;;6.90;4.78;;;18.40;60.30;;;;;;5053931;28;20555;-68
2023/07/08 01:08:28;;;;;;;8.65;4.72;;;18.30;60.40;;;;;;5054856;28;20053;-69
2023/07/08 01:11:01;;;;;;;7.22;4.13;;;18.30;60.50;;;;;;5035137;28;20048;-68
2023/07/08 01:13:33;;;;;;;5.35;4.60;;;18.30;60.50;;;;;;5055144;28;20432;-68
2023/07/08 01:15:59;;;;;;;7.53;5.10;;;18.30;60.70;;;;;;5054645;28;20039;-68
2023/07/08 01:18:25;;;;;;;8.18;4.95;;;18.20;60.60;;;;;;5037081;28;20061;-68
2023/07/08 01:20:55;;;;;;;5.65;4.40;;;18.20;60.70;;;;;;5054134;28;20064;-69
2023/07/08 01:23:21;;;;;;;6.00;4.68;;;18.20;60.90;;;;;;5048656;28;20037;-68
2023/07/08 01:25:47;;;;;;;8.05;5.00;;;18.20;60.90;;;;;;5048252;28;20508;-69
2023/07/08 01:28:13;;;;;;;7.03;3.97;;;18.20;61.00;;;;;;5044228;28;20049;-68
2023/07/08 01:30:42;;;;;;;7.55;4.72;;;18.20;61.00;;;;;;5046495;28;20111;-69
2023/07/08 01:33:17;;;;;;;5.80;3.75;;;18.10;61.00;;;;;;5047497;28;20396;-68
2023/07/08 01:35:43;;;;;;;7.45;4.95;;;18.20;61.00;;;;;;5047046;28;20098;-68
2023/07/08 01:38:11;;;;;;;7.30;4.82;;;18.10;61.00;;;;;;5033708;28;20037;-69
2023/07/08 01:40:38;;;;;;;7.45;5.25;;;18.20;61.00;;;;;;5054656;28;20119;-68
2023/07/08 01:43:05;;;;;;;6.75;4.18;;;18.20;61.00;;;;;;5053792;28;20112;-68
2023/07/08 01:45:39;;;;;;;5.32;3.90;;;18.10;61.10;;;;;;5054296;28;20036;-69
2023/07/08 01:48:15;;;;;;;5.32;4.10;;;18.10;61.00;;;;;;5054671;28;20435;-69
2023/07/08 01:51:02;;;;;;;5.43;4.22;;;18.10;61.00;;;;;;5054373;28;20082;-69
2023/07/08 01:53:35;;;;;;;6.00;4.30;;;18.20;60.90;;;;;;5053694;28;20048;-69
2023/07/08 01:56:00;;;;;;;5.43;3.80;;;18.10;60.90;;;;;;5053044;28;20029;-69
2023/07/08 01:58:27;;;;;;;6.80;4.43;;;18.20;60.80;;;;;;5051908;28;20043;-69
2023/07/08 02:00:54;;;;;;;6.40;4.20;;;18.20;60.80;;;;;;5050484;28;20045;-69
2023/07/08 02:03:20;;;;;;;5.68;4.10;;;18.20;60.80;;;;;;5045921;28;20045;-69
2023/07/08 02:05:46;;;;;;;4.93;3.67;;;18.20;60.80;;;;;;5046911;28;20067;-69
2023/07/08 02:08:12;;;;;;;6.18;4.55;;;18.20;60.70;;;;;;5042432;28;20036;-69
2023/07/08 02:10:39;;;;;;;6.72;3.97;;;18.20;60.70;;;;;;5057710;28;20040;-69
2023/07/08 02:13:05;;;;;;;5.80;4.45;;;18.20;60.70;;;;;;5057658;28;20052;-69
2023/07/08 02:15:31;;;;;;;5.68;3.85;;;18.20;60.80;;;;;;5041770;28;20036;-69
2023/07/08 02:17:57;;;;;;;6.85;4.70;;;18.20;60.80;;;;;;5057574;28;20127;-69
2023/07/08 02:20:23;;;;;;;6.63;4.03;;;18.20;60.90;;;;;;5039208;28;20146;-69
2023/07/08 02:22:49;;;;;;;8.13;5.30;;;18.10;60.80;;;;;;5057880;28;20048;-69
2023/07/08 02:25:15;;;;;;;6.18;4.32;;;18.10;60.90;;;;;;5057965;28;20123;-69
2023/07/08 02:27:42;;;;;;;6.00;4.85;;;18.10;60.80;;;;;;5058150;28;20388;-69
2023/07/08 02:30:08;;;;;;;7.35;4.93;;;18.00;61.00;;;;;;5058057;28;20540;-69
2023/07/08 02:32:35;;;;;;;8.70;5.18;;;18.10;61.00;;;;;;5057578;28;20090;-69
2023/07/08 02:35:05;;;;;;;6.88;4.55;;;18.10;61.00;;;;;;5041135;28;20119;-69
2023/07/08 02:37:32;;;;;;;5.53;4.95;;;18.10;61.10;;;;;;5057755;28;20044;-69
2023/07/08 02:39:57;;;;;;;6.03;4.65;;;18.00;61.10;;;;;;5057401;28;20044;-69
2023/07/08 02:42:23;;;;;;;7.03;4.35;;;18.00;61.20;;;;;;5057788;28;20153;-69
2023/07/08 02:44:49;;;;;;;8.85;5.97;;;17.90;61.20;;;;;;5057521;28;20036;-69
2023/07/08 02:47:15;;;;;;;6.40;4.70;;;17.90;61.20;;;;;;5040821;28;20047;-69
2023/07/08 02:49:41;;;;;;;9.50;5.72;;;17.90;61.20;;;;;;5057024;28;20045;-69
2023/07/08 02:52:06;;;;;;;6.15;5.35;;;17.90;61.30;;;;;;5057442;28;20040;-69
2023/07/08 02:54:32;;;;;;;7.15;4.85;;;17.90;61.90;;;;;;5057039;28;20049;-69
2023/07/08 02:56:58;;;;;;;8.48;5.13;;;17.90;61.50;;;;;;5040864;28;20044;-69
2023/07/08 02:59:23;;;;;;;8.52;5.55;;;17.80;61.60;;;;;;5056884;28;20060;-69
2023/07/08 03:01:50;;;;;;;9.10;5.28;;;17.80;61.70;;;;;;5040610;28;20071;-69
2023/07/08 03:04:16;;;;;;;7.38;5.03;;;17.80;61.70;;;;;;5040945;28;20070;-69
2023/07/08 03:06:45;;;;;;;6.50;4.97;;;17.80;61.70;;;;;;5053718;28;20511;-69
2023/07/08 03:09:12;;;;;;;6.70;5.05;;;17.80;61.80;;;;;;5057179;28;20037;-69
2023/07/08 03:11:39;;;;;;;8.32;5.30;;;17.80;61.90;;;;;;5057090;28;20040;-69
2023/07/08 03:14:06;;;;;;;5.95;4.80;;;17.70;61.90;;;;;;5056934;28;20045;-69
2023/07/08 03:16:31;;;;;;;8.02;4.90;;;17.70;62.00;;;;;;5040741;28;20483;-69
2023/07/08 03:18:57;;;;;;;7.80;5.22;;;17.70;62.10;;;;;;5038035;28;20059;-69
2023/07/08 03:21:23;;;;;;;6.65;4.75;;;17.70;62.20;;;;;;5070135;28;20063;-69
2023/07/08 03:23:50;;;;;;;8.57;5.43;;;17.60;62.10;;;;;;5056808;28;20041;-69
2023/07/08 03:26:22;;;;;;;8.30;4.78;;;17.70;62.40;;;;;;5040301;28;20495;-69
2023/07/08 03:28:49;;;;;;;6.85;5.25;;;17.60;62.30;;;;;;5056314;28;20085;-69
2023/07/08 03:31:15;;;;;;;6.85;5.20;;;17.60;62.40;;;;;;5056727;28;20044;-69
2023/07/08 03:33:40;;;;;;;6.72;5.03;;;17.60;62.40;;;;;;5056321;28;20561;-69
2023/07/08 03:36:13;;;;;;;6.65;4.25;;;17.60;62.60;;;;;;5056901;28;20040;-69
2023/07/08 03:38:39;;;;;;;8.10;4.85;;;17.60;62.50;;;;;;5056242;28;20036;-69
2023/07/08 03:41:05;;;;;;;8.23;5.30;;;17.50;62.40;;;;;;5056385;28;20082;-69
2023/07/08 03:43:30;;;;;;;8.13;5.38;;;17.50;62.50;;;;;;5056858;28;20044;-69
2023/07/08 03:45:56;;;;;;;5.93;4.72;;;17.50;62.60;;;;;;5039811;28;20043;-69
2023/07/08 03:48:22;;;;;;;8.75;5.45;;;17.50;62.70;;;;;;5056130;28;20040;-69
2023/07/08 03:50:48;;;;;;;6.45;5.32;;;17.50;62.80;;;;;;5037150;28;20048;-69
2023/07/08 03:53:13;;;;;;;6.93;5.25;;;17.50;62.80;;;;;;5055925;28;20052;-69
2023/07/08 03:55:39;;;;;;;8.27;5.18;;;17.50;62.90;;;;;;5056293;28;20040;-69
2023/07/08 03:58:05;;;;;;;8.00;5.50;;;17.50;62.90;;;;;;5056009;28;20033;-69
2023/07/08 04:00:31;;;;;;;6.38;5.10;;;17.50;63.50;;;;;;5056324;28;20044;-69
2023/07/08 04:02:56;;;;;;;8.40;5.55;;;17.40;63.10;;;;;;5038932;28;20036;-69
2023/07/08 04:05:23;;;;;;;8.35;5.43;;;17.40;63.30;;;;;;5056219;28;20068;-69
2023/07/08 04:07:49;;;;;;;7.93;5.07;;;17.40;63.50;;;;;;5055912;28;20046;-69
2023/07/08 04:10:16;;;;;;;8.10;5.45;;;17.40;63.60;;;;;;5055916;28;20401;-69
2023/07/08 04:12:42;;;;;;;8.73;5.43;;;17.30;63.60;;;;;;5049300;28;20036;-69
2023/07/08 04:15:10;;;;;;;6.78;4.95;;;17.30;63.70;;;;;;5056222;28;20742;-69
2023/07/08 04:17:48;;;;;;;8.43;5.45;;;17.30;63.90;;;;;;5055481;28;20459;-69
2023/07/08 04:20:16;;;;;;;7.22;5.60;;;17.30;64.00;;;;;;5038764;28;20060;-69
2023/07/08 04:22:42;;;;;;;7.75;5.68;;;17.30;64.00;;;;;;5055701;28;20032;-69
2023/07/08 04:25:08;;;;;;;7.07;5.43;;;17.30;64.10;;;;;;5055790;28;20029;-69
2023/07/08 04:27:33;;;;;;;8.50;5.78;;;17.30;64.30;;;;;;5055645;28;20078;-69
2023/07/08 04:29:59;;;;;;;6.72;5.22;;;17.30;64.40;;;;;;5055565;28;20036;-69
2023/07/08 04:32:25;;;;;;;7.05;5.15;;;17.30;64.60;;;;;;5055884;28;20043;-69
2023/07/08 04:34:51;;;;;;;7.72;5.70;;;17.30;64.70;;;;;;5055125;28;20044;-69
2023/07/08 04:37:19;;;;;;;7.22;5.30;;;17.30;64.80;;;;;;5055110;28;20480;-69
2023/07/08 04:39:45;;;;;;;7.53;5.47;;;17.30;64.70;;;;;;5055682;28;20032;-69
2023/07/08 04:42:13;;;;;;;9.05;6.43;;;17.30;64.80;;;;;;5055041;28;20047;-69
2023/07/08 04:44:38;;;;;;;6.95;5.28;;;17.30;64.90;;;;;;5039411;28;20102;-69
2023/07/08 04:47:04;;;;;;;7.10;5.53;;;17.30;65.00;;;;;;5054816;28;20048;-69
2023/07/08 04:49:31;;;;;;;7.47;5.53;;;17.30;65.10;;;;;;5055286;28;20078;-69
2023/07/08 04:51:59;;;;;;;8.35;6.10;;;17.30;65.10;;;;;;5038620;28;20041;-69
2023/07/08 04:54:24;;;;;;;7.22;5.60;;;17.30;65.40;;;;;;5038525;28;20040;-69
2023/07/08 04:56:52;;;;;;;6.55;5.63;;;17.30;65.40;;;;;;5038326;28;20055;-69
2023/07/08 04:59:20;;;;;;;8.80;6.30;;;17.30;65.30;;;;;;5054863;28;20070;-69
2023/07/08 05:01:46;;;;;;;7.28;5.38;;;17.30;65.40;;;;;;5054948;28;20542;-70
2023/07/08 05:04:14;;;;;;;7.78;5.88;;;17.30;65.60;;;;;;5054801;28;20041;-69
2023/07/08 05:06:41;;;;;;;7.72;6.13;;;17.30;65.70;;;;;;5054687;28;20455;-69
2023/07/08 05:09:07;;;;;;;6.82;5.50;;;17.40;65.80;;;;;;5054878;28;20048;-69
2023/07/08 05:11:33;;;;;;;8.48;5.85;;;17.40;65.90;;;;;;5038421;28;20072;-69
2023/07/08 05:14:00;;;;;;;6.28;5.47;;;17.40;65.90;;;;;;5054837;28;20072;-70
2023/07/08 05:16:27;;;;;;;7.63;5.80;;;17.40;66.00;;;;;;5054924;28;20048;-69
2023/07/08 05:18:52;;;;;;;8.60;5.43;;;17.50;66.00;;;;;;5051393;28;20053;-68
2023/07/08 05:21:20;;;;;;;6.18;5.20;;;17.60;65.90;;;;;;5050522;28;20116;-69
2023/07/08 05:23:46;;;;;;;8.73;5.47;;;17.70;65.70;;;;;;5051410;28;20425;-67
2023/07/08 05:26:12;;;;;;;7.25;4.95;;;17.80;65.60;;;;;;5051017;28;20427;-67
2023/07/08 05:28:38;;;;;;;9.10;5.35;;;18.00;65.70;;;;;;5051285;28;20110;-67
2023/07/08 05:31:03;;;;;;;7.55;5.38;;;18.20;65.20;;;;;;5016802;28;20391;-67
2023/07/08 05:33:31;;;;;;;7.15;5.13;;;18.40;64.90;;;;;;5050442;28;20049;-68
2023/07/08 05:35:57;;;;;;;8.88;5.18;;;18.70;64.00;;;;;;5051142;28;20369;-68
2023/07/08 05:38:24;;;;;;;5.78;4.47;;;18.90;63.30;;;;;;5034935;28;20041;-68
2023/07/08 05:40:57;;;;;;;6.85;4.40;;;19.10;63.20;;;;;;5051513;28;20492;-67
2023/07/08 05:43:24;;;;;;;5.82;4.65;;;19.30;61.90;;;;;;5051561;28;20373;-67
2023/07/08 05:45:50;;;;;;;6.00;4.32;;;19.50;61.30;;;;;;5050920;28;20051;-67
2023/07/08 05:48:15;;;;;;;8.50;4.70;;;19.70;61.10;;;;;;5051112;28;20049;-68
2023/07/08 05:50:41;;;;;;;9.77;5.38;;;19.90;60.20;;;;;;5051130;28;20045;-68
2023/07/08 05:53:11;;;;;;;7.05;4.82;;;20.10;59.50;;;;;;5051054;28;20492;-68
2023/07/08 05:55:37;;;;;;;7.65;4.40;;;20.30;59.60;;;;;;5051064;28;20392;-68
2023/07/08 05:58:03;;;;;;;6.53;4.63;;;20.60;59.20;;;;;;5050990;28;20051;-68
2023/07/08 06:00:28;;;;;;;8.75;4.28;;;20.80;58.70;;;;;;5050494;28;20041;-67
2023/07/08 06:02:54;;;;;;;6.20;4.60;;;21.00;57.80;;;;;;5050493;28;20037;-68
2023/07/08 06:05:20;;;;;;;5.25;3.90;;;21.10;57.00;;;;;;5050614;28;20049;-68
2023/07/08 06:07:45;;;;;;;7.35;3.70;;;21.20;56.70;;;;;;5050761;28;20033;-68
2023/07/08 06:10:11;;;;;;;7.82;4.28;;;21.40;56.70;;;;;;5051212;28;20447;-67
2023/07/08 06:12:37;;;;;;;7.38;4.15;;;21.60;56.40;;;;;;5050660;28;20627;-67
2023/07/08 06:15:03;;;;;;;6.30;4.18;;;21.90;56.00;;;;;;5050949;28;20115;-68
2023/07/08 06:17:29;;;;;;;6.80;3.83;;;22.20;55.30;;;;;;5049080;28;20040;-67
2023/07/08 06:19:55;;;;;;;6.28;3.85;;;22.30;54.70;;;;;;5050372;28;20056;-68
2023/07/08 06:22:20;;;;;;;4.90;3.08;;;22.50;53.90;;;;;;5050624;28;20052;-68
2023/07/08 06:24:47;;;;;;;5.03;3.70;;;22.60;53.40;;;;;;5034042;28;20079;-69
2023/07/08 06:27:13;;;;;;;5.88;3.30;;;22.70;53.40;;;;;;5048208;28;20045;-69
2023/07/08 06:29:39;;;;;;;6.03;3.65;;;22.80;53.00;;;;;;5046281;28;20377;-68
2023/07/08 06:32:05;;;;;;;5.63;3.25;;;23.00;52.50;;;;;;5050018;28;20044;-68
2023/07/08 06:34:31;;;;;;;4.57;2.83;;;23.10;52.00;;;;;;5048333;28;20064;-68
2023/07/08 06:36:57;;;;;;;5.13;3.20;;;23.30;52.00;;;;;;5050423;28;20496;-68
2023/07/08 06:39:22;;;;;;;4.80;3.53;;;23.50;51.70;;;;;;5050744;28;20041;-68
2023/07/08 06:41:48;;;;;;;4.32;3.30;;;23.80;51.30;;;;;;5050379;28;20045;-68
2023/07/08 06:44:14;;;;;;;4.43;3.42;;;23.90;51.40;;;;;;5053381;28;20111;-68
2023/07/08 06:46:40;;;;;;;5.40;3.10;;;24.10;50.40;;;;;;5052958;28;20151;-68
2023/07/08 06:49:09;;;;;;;6.22;3.45;;;24.20;49.50;;;;;;5051685;28;20041;-68
2023/07/08 06:51:35;;;;;;;5.47;2.95;;;24.20;49.20;;;;;;5053388;28;20514;-68
2023/07/08 06:54:10;;;;;;;4.47;3.05;;;24.20;49.20;;;;;;5052950;28;20048;-68
2023/07/08 06:56:38;;;;;;;6.35;3.38;;;24.20;50.10;;;;;;5036214;28;20040;-68
2023/07/08 06:59:04;;;;;;;4.43;3.13;;;24.40;49.40;;;;;;5053254;28;20056;-68
2023/07/08 07:01:30;;;;;;;6.13;3.25;;;24.40;49.60;;;;;;5053195;28;20037;-68
2023/07/08 07:03:56;;;;;;;4.40;2.67;;;24.40;48.40;;;;;;5052991;28;20766;-68
2023/07/08 07:06:21;;;;;;;4.75;3.20;;;24.40;47.80;;;;;;5052760;28;20056;-69
2023/07/08 07:08:48;;;;;;;5.38;3.20;;;24.40;48.40;;;;;;5052954;28;20476;-69
2023/07/08 07:11:13;;;;;;;4.07;2.97;;;24.40;48.60;;;;;;5053410;28;20051;-69
2023/07/08 07:13:39;;;;;;;4.85;3.13;;;24.40;49.30;;;;;;5053766;28;20037;-68
2023/07/08 07:16:05;;;;;;;4.72;2.70;;;24.50;49.20;;;;;;5053381;28;20037;-68
2023/07/08 07:18:31;;;;;;;3.35;2.72;;;24.70;48.70;;;;;;5053379;28;20049;-68
2023/07/08 07:20:58;;;;;;;5.00;3.20;;;24.80;48.30;;;;;;5053506;28;20048;-68
2023/07/08 07:23:24;;;;;;;4.05;2.90;;;25.00;48.10;;;;;;5053509;28;20083;-68
2023/07/08 07:25:50;;;;;;;6.15;3.03;;;25.20;47.80;;;;;;5054713;28;20508;-68
2023/07/08 07:28:16;;;;;;;6.00;3.58;;;25.30;48.30;;;;;;5053503;28;20040;-69
2023/07/08 07:30:46;;;;;;;4.25;2.88;;;25.40;47.10;;;;;;5036317;28;20504;-68
2023/07/08 07:33:12;;;;;;;6.63;3.05;;;25.40;46.30;;;;;;5041616;28;20045;-68
2023/07/08 07:35:45;;;;;;;4.50;3.13;;;25.40;46.40;;;;;;5028250;28;20485;-68
2023/07/08 07:38:11;;;;;;;7.60;3.38;;;25.40;47.00;;;;;;5028394;28;20573;-68
2023/07/08 07:40:39;;;;;;;3.88;2.58;;;25.50;47.20;;;;;;5028740;28;20045;-69
2023/07/08 07:43:04;;;;;;;4.38;2.90;;;25.50;46.80;;;;;;5028796;28;20092;-68
2023/07/08 07:45:30;;;;;;;5.25;3.13;;;25.60;45.90;;;;;;5029374;28;20496;-69
2023/07/08 07:47:56;;;;;;;5.65;3.00;;;25.70;45.70;;;;;;5029559;28;20069;-69
2023/07/08 07:50:21;;;;;;;5.78;3.17;;;25.70;45.50;;;;;;5031704;28;20037;-68
2023/07/08 07:52:47;;;;;;;4.70;2.90;;;25.80;45.10;;;;;;5011126;28;20045;-68
2023/07/08 07:55:13;;;;;;;4.32;2.58;;;25.70;45.50;;;;;;5028517;28;20496;-69
2023/07/08 07:57:39;;;;;;;4.40;3.10;;;25.70;46.20;;;;;;5027959;28;20048;-69
2023/07/08 08:00:05;;;;;;;4.95;2.83;;;25.70;46.00;;;;;;5028550;28;20377;-69
2023/07/08 08:02:31;;;;;;;4.72;2.80;;;25.80;45.80;;;;;;5029326;28;20041;-69
2023/07/08 08:04:57;;;;;;;6.18;2.72;;;25.80;45.40;;;;;;4997372;28;20106;-69
2023/07/08 08:07:22;;;;;;;4.07;2.85;;;25.90;45.30;;;;;;5010289;28;20455;-69
2023/07/08 08:09:48;;;;;;;5.60;2.92;;;26.00;45.10;;;;;;5011878;28;20159;-69
2023/07/08 08:12:14;;;;;;;3.95;2.63;;;26.20;44.90;;;;;;5027948;28;20064;-69
2023/07/08 08:14:39;;;;;;;5.85;3.08;;;26.20;45.20;;;;;;5029353;28;20037;-69
2023/07/08 08:17:05;;;;;;;5.45;2.92;;;26.30;45.00;;;;;;5013611;28;20143;-70
2023/07/08 08:19:32;;;;;;;4.88;2.72;;;26.40;45.00;;;;;;5028660;28;20048;-69
2023/07/08 08:21:57;;;;;;;5.82;3.45;;;26.50;44.60;;;;;;5026937;28;20041;-69
2023/07/08 08:24:23;;;;;;;3.88;2.70;;;26.60;44.10;;;;;;5027146;28;20470;-70
2023/07/08 08:26:49;;;;;;;4.57;3.05;;;26.70;44.50;;;;;;5026392;28;20048;-69
2023/07/08 08:29:14;;;;;;;5.15;3.63;;;26.80;45.00;;;;;;5026793;28;20056;-69
2023/07/08 08:31:40;;;;;;;6.93;3.60;;;26.90;44.20;;;;;;5026908;28;20045;-69
2023/07/08 08:34:06;;;;;;;5.57;3.05;;;26.90;44.30;;;;;;5025614;28;20420;-69
2023/07/08 08:36:31;;;;;;;5.00;3.08;;;27.00;44.30;;;;;;5026166;28;20053;-68
2023/07/08 08:38:57;;;;;;;4.95;3.17;;;27.00;44.30;;;;;;5026334;28;20045;-69
2023/07/08 08:41:31;;;;;;;5.68;3.30;;;27.10;44.40;;;;;;5026157;28;20037;-68
2023/07/08 08:43:59;;;;;;;6.13;3.40;;;27.20;43.30;;;;;;5026267;28;20041;-69
2023/07/08 08:46:51;;;;;;;6.60;3.40;;;27.20;43.70;;;;;;5028338;28;20049;-69
2023/07/08 08:49:32;;;;;;;7.22;3.65;;;27.20;43.20;;;;;;5029683;28;20045;-68
2023/07/08 08:51:58;;;;;;;4.22;2.85;;;27.20;43.00;;;;;;5031716;28;20489;-69
2023/07/08 08:54:25;;;;;;;6.25;3.28;;;27.20;43.10;;;;;;5031900;28;20048;-70
2023/07/08 08:57:04;;;;;;;4.13;3.30;;;27.30;43.70;;;;;;5032956;28;20052;-69
2023/07/08 08:59:55;;;;;;;4.45;3.17;;;27.40;43.90;;;;;;5031535;28;20087;-70
2023/07/08 09:02:21;;;;;;;7.43;3.15;;;27.40;44.10;;;;;;5025700;28;20045;-69
2023/07/08 09:04:48;;;;;;;4.50;3.65;;;27.50;44.60;;;;;;5031807;28;20041;-70
2023/07/08 09:07:18;;;;;;;5.68;3.50;;;27.50;43.60;;;;;;5024420;28;20041;-70
2023/07/08 09:09:50;;;;;;;6.50;3.40;;;27.50;43.90;;;;;;5031446;28;20481;-70
2023/07/08 09:12:24;;;;;;;4.85;2.95;;;27.50;43.90;;;;;;5031784;28;20049;-70
2023/07/08 09:14:50;;;;;;;4.95;3.55;;;27.50;44.30;;;;;;5031393;28;20049;-72
2023/07/08 09:17:22;;;;;;;5.55;3.60;;;27.60;44.50;;;;;;5031730;28;20045;-70
2023/07/08 09:20:20;;;;;;;4.63;3.25;;;27.70;43.50;;;;;;5032817;28;20084;-67
2023/07/08 09:22:59;;;;;;;6.97;3.55;;;27.80;43.60;;;;;;5051204;28;20045;-67
2023/07/08 09:25:36;;;;;;;4.75;3.10;;;27.80;44.50;;;;;;5045176;28;20045;-67
2023/07/08 09:28:02;;;;;;;7.80;3.95;;;27.90;44.90;;;;;;5045111;28;20051;-67
2023/07/08 09:30:30;;;;;;;6.60;3.50;;;27.90;43.80;;;;;;5051234;28;20084;-70
2023/07/08 09:32:57;;;;;;;4.65;3.15;;;27.90;43.70;;;;;;5034446;28;20043;-70
2023/07/08 09:35:25;;;;;;;6.25;3.75;;;28.00;43.30;;;;;;5051377;28;20044;-70
2023/07/08 09:37:52;;;;;;;4.40;3.38;;;28.00;43.90;;;;;;5051044;28;20083;-71
2023/07/08 09:40:21;;;;;;;4.88;2.85;;;28.10;44.00;;;;;;5050944;28;20068;-70
2023/07/08 09:42:51;;;;;;;6.22;3.10;;;28.20;44.30;;;;;;5051245;28;20106;-70
2023/07/08 09:45:23;;;;;;;7.80;3.42;;;28.20;44.30;;;;;;5051061;28;20049;-70
2023/07/08 09:47:54;;;;;;;6.18;3.17;;;28.30;44.20;;;;;;5051211;28;20116;-70
2023/07/08 09:50:31;;;;;;;6.05;3.67;;;28.50;44.20;;;;;;5026567;28;20108;-70
2023/07/08 09:53:00;;;;;;;5.07;3.15;;;28.60;43.50;;;;;;5050890;28;20170;-70
2023/07/08 09:55:28;;;;;;;8.40;3.35;;;28.70;44.20;;;;;;5049464;28;20033;-70
2023/07/08 09:57:58;;;;;;;5.30;3.47;;;28.90;43.80;;;;;;5034403;28;20055;-70
2023/07/08 10:00:33;;;;;;;7.47;3.55;;;29.00;43.20;;;;;;5026976;28;20032;-70
2023/07/08 10:03:05;;;;;;;5.50;3.35;;;29.10;42.80;;;;;;5050773;28;20044;-70
2023/07/08 10:05:40;;;;;;;6.63;3.95;;;29.20;43.30;;;;;;5051066;28;20080;-70
2023/07/08 10:08:21;;;;;;;4.90;3.33;;;29.30;43.20;;;;;;5051023;28;20033;-70
2023/07/08 10:10:49;;;;;;;4.18;3.40;;;29.40;43.00;;;;;;5048085;28;20049;-71
2023/07/08 10:13:33;;;;;;;4.38;3.15;;;29.40;41.90;;;;;;5050538;28;20045;-71
2023/07/08 10:16:25;;;;;;;4.13;3.50;;;29.50;41.60;;;;;;5033290;28;20060;-71
2023/07/08 10:18:51;;;;;;;4.90;3.72;;;29.50;40.30;;;;;;5054702;28;20049;-71
2023/07/08 10:21:26;;;;;;;7.03;3.55;;;29.40;41.20;;;;;;5054664;28;20087;-70
2023/07/08 10:24:16;;;;;;;4.53;3.30;;;29.40;41.10;;;;;;5054505;28;20060;-71
2023/07/08 10:26:48;;;;;;;6.05;3.47;;;29.40;41.50;;;;;;5054955;28;20041;-71
2023/07/08 10:29:34;;;;;;;10.98;3.90;;;29.40;41.70;;;;;;5054054;28;20071;-71
2023/07/08 10:32:05;;;;;;;5.47;3.40;;;29.50;41.80;;;;;;5054363;28;20045;-70
2023/07/08 10:34:56;;;;;;;4.55;3.10;;;29.60;41.10;;;;;;5052804;28;20037;-70
2023/07/08 10:37:31;;;;;;;5.70;2.83;;;29.70;40.20;;;;;;5053085;28;20041;-70
2023/07/08 10:40:06;;;;;;;5.53;4.00;;;29.80;40.10;;;;;;5054897;28;20403;-70
2023/07/08 10:42:43;;;;;;;5.15;3.47;;;29.80;41.40;;;;;;5048434;28;20037;-70
2023/07/08 10:45:31;;;;;;;7.20;3.65;;;29.90;41.20;;;;;;5047761;28;20040;-70
2023/07/08 10:48:44;;;;;;;5.07;3.08;;;30.00;40.50;;;;;;5054365;28;20044;-69
2023/07/08 10:51:25;;;;;;;6.80;3.78;;;30.10;40.70;;;;;;5050607;28;20102;-70
2023/07/08 10:54:16;;;;;;;4.65;3.65;;;30.10;41.00;;;;;;5054237;28;20043;-70
2023/07/08 10:56:54;;;;;;;4.93;3.22;;;30.20;40.60;;;;;;5054514;28;20451;-69
2023/07/08 10:59:48;;;;;;;6.63;3.60;;;30.30;40.60;;;;;;5053731;28;20107;-72
2023/07/08 11:02:17;;;;;;;4.65;3.45;;;30.40;39.90;;;;;;5050571;28;20041;-72
2023/07/08 11:04:49;;;;;;;13.43;4.47;;;30.50;39.80;;;;;;5053761;28;20626;-72
2023/07/08 11:07:41;;;;;;;4.85;3.08;;;30.70;39.50;;;;;;5053457;28;20553;-72
2023/07/08 11:10:35;;;;;;;6.38;3.28;;;30.80;39.20;;;;;;5049378;28;20040;-72
2023/07/08 11:13:03;;;;;;;4.53;3.22;;;30.90;40.00;;;;;;5036956;28;20044;-72
2023/07/08 11:15:36;;;;;;;5.70;3.38;;;31.00;39.10;;;;;;5047487;28;20040;-72
2023/07/08 11:18:13;;;;;;;4.10;3.53;;;31.20;38.40;;;;;;5028321;28;20057;-72
2023/07/08 11:20:51;;;;;;;5.68;3.17;;;31.30;38.80;;;;;;5037248;28;20397;-72
2023/07/08 11:23:23;;;;;;;3.17;2.85;;;31.40;39.00;;;;;;5035330;28;20120;-72
2023/07/08 11:25:50;;;;;;;4.93;3.05;;;31.50;38.80;;;;;;5038324;28;20600;-72
2023/07/08 11:28:19;;;;;;;4.03;2.90;;;31.50;38.20;;;;;;5037388;28;20041;-72
2023/07/08 11:30:50;;;;;;;4.85;3.47;;;31.60;37.80;;;;;;5036322;28;20041;-71
2023/07/08 11:33:18;;;;;;;5.68;3.67;;;31.60;38.60;;;;;;5037479;28;20044;-72
2023/07/08 11:35:49;;;;;;;5.85;3.40;;;31.70;36.80;;;;;;5040110;28;20682;-72
2023/07/08 11:38:20;;;;;;;5.03;3.88;;;31.80;36.60;;;;;;5036117;28;20599;-71
2023/07/08 11:41:23;;;;;;;5.25;3.67;;;31.90;37.40;;;;;;5038579;28;20120;-71
2023/07/08 11:44:05;;;;;;;4.88;3.47;;;31.90;37.50;;;;;;4997998;28;20051;-72
2023/07/08 11:46:34;;;;;;;5.47;3.77;;;32.00;37.20;;;;;;5036579;28;20037;-72
2023/07/08 11:49:11;;;;;;;5.88;3.50;;;32.10;36.50;;;;;;5034727;28;20284;-71
2023/07/08 11:51:40;;;;;;;5.38;3.63;;;32.10;37.00;;;;;;5060505;28;20068;-72
2023/07/08 11:54:40;;;;;;;7.53;4.00;;;32.10;36.90;;;;;;5035022;28;20128;-72
2023/07/08 11:57:09;;;;;;;5.45;3.40;;;32.20;36.10;;;;;;5033040;28;20037;-72
2023/07/08 11:59:40;;;;;;;7.03;4.10;;;32.20;36.40;;;;;;5045413;28;20124;-72
2023/07/08 12:02:14;;;;;;;5.13;3.47;;;32.30;36.10;;;;;;5038100;28;20134;-72
2023/07/08 12:05:10;;;;;;;5.53;3.60;;;32.30;35.40;;;;;;5033538;28;20029;-73
2023/07/08 12:07:53;;;;;;;6.35;3.63;;;32.40;36.10;;;;;;5032371;28;20069;-73
2023/07/08 12:10:26;;;;;;;4.90;3.65;;;32.50;35.90;;;;;;5034396;28;20041;-73
2023/07/08 12:12:52;;;;;;;6.35;4.18;;;32.50;36.30;;;;;;5037879;28;20475;-72
2023/07/08 12:15:32;;;;;;;5.65;4.15;;;32.60;36.00;;;;;;5033227;28;20092;-72
2023/07/08 12:18:16;;;;;;;7.65;4.78;;;32.70;35.60;;;;;;5023858;28;20044;-72
2023/07/08 12:20:45;;;;;;;6.75;4.28;;;32.80;36.00;;;;;;5039834;28;20053;-72
2023/07/08 12:23:20;;;;;;;6.90;5.10;;;32.90;34.90;;;;;;5038736;28;20041;-72
2023/07/08 12:25:46;;;;;;;6.65;5.28;;;32.80;34.80;;;;;;5024720;28;20384;-72
2023/07/08 12:28:12;;;;;;;5.53;4.25;;;32.80;34.50;;;;;;5021119;28;20029;-72
2023/07/08 12:30:39;;;;;;;7.18;4.65;;;32.90;34.80;;;;;;5039730;28;20051;-72
2023/07/08 12:33:11;;;;;;;5.72;4.60;;;32.80;34.50;;;;;;5024319;28;20396;-72
2023/07/08 12:35:37;;;;;;;6.03;4.40;;;32.90;35.00;;;;;;5036861;28;20045;-72
2023/07/08 12:38:15;;;;;;;5.50;4.70;;;32.80;35.20;;;;;;5037653;28;20033;-72
2023/07/08 12:40:41;;;;;;;6.38;4.72;;;32.90;35.70;;;;;;5037371;28;20429;-72
2023/07/08 12:43:10;;;;;;;6.13;4.60;;;32.80;36.10;;;;;;5036065;28;20132;-73
2023/07/08 12:45:37;;;;;;;6.57;4.50;;;32.90;35.80;;;;;;5038851;28;20044;-73
2023/07/08 12:48:03;;;;;;;7.25;4.68;;;33.00;35.20;;;;;;5021479;28;20451;-72
2023/07/08 12:50:28;;;;;;;5.53;4.85;;;33.00;35.30;;;;;;5036808;28;20136;-72
2023/07/08 12:52:56;;;;;;;5.50;4.25;;;33.00;35.00;;;;;;5023454;28;20116;-71
2023/07/08 12:55:22;;;;;;;5.72;4.28;;;33.00;35.20;;;;;;5041951;28;20053;-72
2023/07/08 12:57:51;;;;;;;5.63;4.45;;;33.10;35.40;;;;;;5038296;28;20037;-72
2023/07/08 13:00:29;;;;;;;5.63;4.93;;;33.10;35.10;;;;;;5023675;28;20040;-72